Time;durP1;ratioP1;P1;durP2;ratioP2;P2;SDS_P1;SDS_P2;PMS_P1;PMS_P2;Temp;Humidity;BMP_temperature;BMP_pressure;BME280_temperature;BME280_humidity;BME280_pressure;Samples;Min_cycle;Max_cycle;Signal;HPM_P1;HPM_P2
2022/07/16 00:03:12;;;;;;;7.40;5.10;;;14.70;99.90;;;;;;5090523;28;20187;-72
2022/07/16 00:05:37;;;;;;;8.50;4.30;;;14.70;99.90;;;;;;5073138;28;20802;-72
2022/07/16 00:08:03;;;;;;;4.77;4.30;;;14.70;99.90;;;;;;5090254;28;20602;-73
2022/07/16 00:10:29;;;;;;;9.27;4.00;;;14.60;99.90;;;;;;5090589;28;20167;-72
2022/07/16 00:12:54;;;;;;;5.70;4.03;;;14.60;99.90;;;;;;5090148;28;20456;-73
2022/07/16 00:15:20;;;;;;;6.57;4.00;;;14.50;99.90;;;;;;5073023;28;20255;-72
2022/07/16 00:17:46;;;;;;;7.40;3.93;;;14.50;99.90;;;;;;5073152;28;20257;-72
2022/07/16 00:20:11;;;;;;;5.93;4.10;;;14.40;99.90;;;;;;5089691;28;20183;-72
2022/07/16 00:22:37;;;;;;;8.53;4.07;;;14.40;99.90;;;;;;5088820;28;20305;-72
2022/07/16 00:25:05;;;;;;;9.70;4.40;;;14.30;99.90;;;;;;5089991;28;20172;-73
2022/07/16 00:27:31;;;;;;;5.43;3.57;;;14.30;99.90;;;;;;5090426;28;20190;-72
2022/07/16 00:29:56;;;;;;;7.23;4.53;;;14.30;99.90;;;;;;5089721;28;20461;-73
2022/07/16 00:32:22;;;;;;;14.63;4.53;;;14.30;99.90;;;;;;5089876;28;20195;-72
2022/07/16 00:34:47;;;;;;;6.47;3.77;;;14.20;99.90;;;;;;5089887;28;20245;-69
2022/07/16 00:37:13;;;;;;;8.70;4.57;;;14.20;99.90;;;;;;5090781;28;20594;-72
2022/07/16 00:39:39;;;;;;;6.70;4.03;;;14.20;99.90;;;;;;5088357;28;20257;-72
2022/07/16 00:42:04;;;;;;;4.97;3.80;;;14.20;99.90;;;;;;5088812;28;20566;-71
2022/07/16 00:44:30;;;;;;;4.10;3.70;;;14.20;99.90;;;;;;5089327;28;20226;-72
2022/07/16 00:46:55;;;;;;;13.80;5.40;;;14.10;99.90;;;;;;5089712;28;20537;-73
2022/07/16 00:49:21;;;;;;;4.87;4.30;;;14.10;99.90;;;;;;5090281;28;20208;-73
2022/07/16 00:51:49;;;;;;;5.07;4.57;;;14.00;99.90;;;;;;5071023;28;20195;-72
2022/07/16 00:54:15;;;;;;;5.20;4.20;;;14.00;99.90;;;;;;5070242;28;20264;-72
2022/07/16 00:56:42;;;;;;;6.17;3.70;;;14.00;99.90;;;;;;5069320;28;20486;-72
2022/07/16 00:59:08;;;;;;;4.27;3.90;;;14.00;99.90;;;;;;5077603;28;20196;-70
2022/07/16 02:32:10;;;;;;;4.67;3.27;;;13.20;99.90;;;;;;5483743;23;20501;-74
2022/07/16 02:34:36;;;;;;;4.43;4.03;;;13.10;99.90;;;;;;4989768;28;20456;-74
2022/07/16 02:37:02;;;;;;;6.00;4.00;;;13.10;99.90;;;;;;4982686;28;20176;-71
2022/07/16 02:39:27;;;;;;;3.97;3.57;;;13.10;99.90;;;;;;4973456;28;20217;-70
2022/07/16 02:41:53;;;;;;;5.73;4.30;;;13.00;99.90;;;;;;4991357;28;20306;-71
2022/07/16 02:44:18;;;;;;;8.97;4.23;;;13.00;99.90;;;;;;4993466;28;20179;-72
2022/07/16 02:46:44;;;;;;;5.33;3.70;;;13.00;99.90;;;;;;4993755;28;20188;-73
2022/07/16 02:49:10;;;;;;;5.73;3.83;;;12.90;99.90;;;;;;4993020;28;20592;-71
2022/07/16 02:51:35;;;;;;;5.47;4.00;;;12.90;99.90;;;;;;4992375;28;20187;-71
2022/07/16 02:54:01;;;;;;;5.80;3.70;;;12.80;99.90;;;;;;4993376;28;20226;-71
2022/07/16 02:56:26;;;;;;;4.60;3.47;;;12.80;99.90;;;;;;4993516;28;20371;-72
2022/07/16 02:58:52;;;;;;;7.70;3.87;;;12.80;99.90;;;;;;4993271;28;20179;-71
2022/07/16 03:01:18;;;;;;;3.77;3.20;;;12.80;99.90;;;;;;4991026;28;20214;-71
2022/07/16 03:03:43;;;;;;;4.80;4.40;;;12.70;99.90;;;;;;4992717;28;20186;-72
2022/07/16 03:06:09;;;;;;;4.60;4.20;;;12.70;99.90;;;;;;4993000;28;20274;-69
2022/07/16 03:08:34;;;;;;;3.80;3.13;;;12.70;99.90;;;;;;4993288;28;20191;-71
2022/07/16 03:11:00;;;;;;;8.30;4.43;;;12.60;99.90;;;;;;4991890;28;20317;-71
2022/07/16 03:13:25;;;;;;;4.10;3.80;;;12.60;99.90;;;;;;4992850;28;20592;-71
2022/07/16 03:15:53;;;;;;;6.10;4.10;;;12.60;99.90;;;;;;4993062;28;20246;-72
2022/07/16 03:18:19;;;;;;;7.80;3.90;;;12.60;99.90;;;;;;4992885;28;20238;-73
2022/07/16 03:20:45;;;;;;;4.50;3.80;;;12.50;99.90;;;;;;4992266;28;20419;-72
2022/07/16 03:23:10;;;;;;;4.33;3.93;;;12.50;99.90;;;;;;4992419;28;20179;-73
2022/07/16 03:25:36;;;;;;;4.23;3.90;;;12.50;99.90;;;;;;4992615;28;20179;-73
2022/07/16 03:28:02;;;;;;;4.43;3.93;;;12.40;99.90;;;;;;4992793;28;20191;-72
2022/07/16 03:30:27;;;;;;;6.03;4.07;;;12.40;99.90;;;;;;4991958;28;20255;-72
2022/07/16 03:32:53;;;;;;;4.40;3.77;;;12.40;99.90;;;;;;4991743;28;20213;-72
2022/07/16 03:35:18;;;;;;;4.13;3.83;;;12.40;99.90;;;;;;4992446;28;20237;-72
2022/07/16 03:40:28;;;;;;;7.13;4.00;;;12.40;99.90;;;;;;4992426;28;20773;-70
2022/07/16 03:42:54;;;;;;;8.13;4.33;;;12.30;99.90;;;;;;4991937;28;20474;-72
2022/07/16 03:45:20;;;;;;;5.13;3.60;;;12.30;99.90;;;;;;4992447;28;20496;-72
2022/07/16 03:47:45;;;;;;;4.83;3.83;;;12.30;99.90;;;;;;4992453;28;20259;-72
2022/07/16 03:50:11;;;;;;;4.30;3.90;;;12.30;99.90;;;;;;4991591;28;20211;-72
2022/07/16 03:52:36;;;;;;;3.70;3.40;;;12.30;99.90;;;;;;4991870;28;20274;-72
2022/07/16 03:55:02;;;;;;;7.80;4.47;;;12.30;99.90;;;;;;4991994;28;20723;-71
2022/07/16 03:57:28;;;;;;;4.43;3.60;;;12.30;99.90;;;;;;4992390;28;20184;-69
2022/07/16 03:59:53;;;;;;;5.00;3.77;;;12.30;99.90;;;;;;4992210;28;20713;-72
2022/07/16 04:02:18;;;;;;;8.80;3.60;;;12.30;99.90;;;;;;4991643;28;20208;-72
2022/07/16 04:04:44;;;;;;;4.20;3.80;;;12.30;99.90;;;;;;4991141;28;20682;-72
2022/07/16 04:07:09;;;;;;;5.17;3.87;;;12.40;99.90;;;;;;4991602;28;20198;-72
2022/07/16 04:09:35;;;;;;;5.60;3.80;;;12.40;99.90;;;;;;4992027;28;20691;-71
2022/07/16 04:12:01;;;;;;;3.83;3.50;;;12.40;99.90;;;;;;4991224;28;20205;-71
2022/07/16 04:14:27;;;;;;;3.63;3.23;;;12.40;99.90;;;;;;4990807;28;20287;-71
2022/07/16 04:16:52;;;;;;;6.23;3.47;;;12.40;99.90;;;;;;4991724;28;20254;-72
2022/07/16 04:19:18;;;;;;;5.57;3.70;;;12.40;99.90;;;;;;4991413;28;20187;-70
2022/07/16 04:21:43;;;;;;;4.43;3.93;;;12.30;99.90;;;;;;4991091;28;20595;-71
2022/07/16 04:24:09;;;;;;;22.27;4.50;;;12.40;99.90;;;;;;4991561;28;20190;-70
2022/07/16 04:26:34;;;;;;;4.50;4.10;;;12.40;99.90;;;;;;4991370;28;20680;-71
2022/07/16 04:29:00;;;;;;;4.00;3.70;;;12.40;99.90;;;;;;4991736;28;20207;-69
2022/07/16 04:31:25;;;;;;;5.70;3.50;;;12.50;99.90;;;;;;4990593;28;20282;-71
2022/07/16 04:33:51;;;;;;;6.83;3.50;;;12.50;99.90;;;;;;4991291;28;20168;-71
2022/07/16 04:36:16;;;;;;;7.10;4.30;;;12.60;99.90;;;;;;4991330;28;20684;-71
2022/07/16 04:38:42;;;;;;;8.30;4.20;;;12.70;99.90;;;;;;4991626;28;20218;-71
2022/07/16 04:41:07;;;;;;;3.90;3.50;;;12.70;99.90;;;;;;4990722;28;20195;-71
2022/07/16 04:43:33;;;;;;;6.73;3.50;;;12.70;99.90;;;;;;4990883;28;20270;-71
2022/07/16 04:45:58;;;;;;;5.63;3.80;;;12.80;99.90;;;;;;4991220;28;20187;-72
2022/07/16 04:48:24;;;;;;;3.93;3.50;;;12.90;99.90;;;;;;4991277;28;20194;-71
2022/07/16 04:50:50;;;;;;;8.77;3.47;;;13.00;99.90;;;;;;4990421;28;20176;-71
2022/07/16 04:53:15;;;;;;;6.03;3.67;;;13.00;99.90;;;;;;4991367;28;20237;-72
2022/07/16 04:55:41;;;;;;;6.93;3.83;;;13.10;99.90;;;;;;4990734;28;20199;-72
2022/07/16 04:58:07;;;;;;;3.50;3.17;;;13.20;99.90;;;;;;4990797;28;20184;-72
2022/07/16 05:00:32;;;;;;;4.23;3.87;;;13.30;99.90;;;;;;4990856;28;20262;-69
2022/07/16 05:02:58;;;;;;;5.90;4.03;;;13.40;99.90;;;;;;4990824;28;20198;-72
2022/07/16 05:05:29;;;;;;;8.80;4.13;;;13.50;99.90;;;;;;4990869;28;20623;-72
2022/07/16 05:07:54;;;;;;;3.97;3.67;;;13.70;99.90;;;;;;4990507;28;20651;-72
2022/07/16 05:10:21;;;;;;;3.60;3.30;;;13.80;99.90;;;;;;4990751;28;20516;-71
2022/07/16 05:12:47;;;;;;;3.33;3.13;;;14.00;99.90;;;;;;4990487;28;20199;-71
2022/07/16 05:15:12;;;;;;;4.90;4.13;;;14.40;99.90;;;;;;4990646;28;20429;-71
2022/07/16 05:17:38;;;;;;;3.10;2.90;;;14.90;99.90;;;;;;4991016;28;20903;-72
2022/07/16 05:20:04;;;;;;;5.80;3.30;;;15.50;99.90;;;;;;4990447;28;20194;-72
2022/07/16 05:22:31;;;;;;;3.83;3.40;;;16.20;99.90;;;;;;4989756;28;20253;-72
2022/07/16 05:24:56;;;;;;;5.33;3.70;;;16.80;99.90;;;;;;4990333;28;20452;-75
2022/07/16 05:27:22;;;;;;;2.87;2.53;;;17.50;99.90;;;;;;4990860;28;20422;-70
2022/07/16 05:29:47;;;;;;;3.40;3.10;;;18.10;99.90;;;;;;4990524;28;20231;-69
2022/07/16 05:32:13;;;;;;;3.60;3.30;;;18.40;99.90;;;;;;4989049;28;20218;-71
2022/07/16 05:34:38;;;;;;;4.03;3.30;;;19.00;99.90;;;;;;4990583;28;20187;-71
2022/07/16 05:37:04;;;;;;;3.33;2.50;;;19.40;99.90;;;;;;4990808;28;20179;-71
2022/07/16 05:39:29;;;;;;;3.87;2.80;;;19.70;99.90;;;;;;4990486;28;20206;-71
2022/07/16 05:41:55;;;;;;;3.60;2.60;;;20.00;99.90;;;;;;4989328;28;20199;-72
2022/07/16 05:44:21;;;;;;;10.00;2.70;;;20.30;99.90;;;;;;4990165;28;20194;-72
2022/07/16 05:46:46;;;;;;;7.30;2.90;;;20.60;99.90;;;;;;4990436;28;20434;-71
2022/07/16 05:49:12;;;;;;;4.43;2.50;;;20.80;99.90;;;;;;4990479;28;20218;-70
2022/07/16 05:51:38;;;;;;;2.93;2.73;;;21.00;99.90;;;;;;4989323;28;20226;-68
2022/07/16 05:54:03;;;;;;;4.10;2.30;;;21.40;99.90;;;;;;4990447;28;20230;-70
2022/07/16 05:56:29;;;;;;;3.00;2.00;;;21.70;99.90;;;;;;4990543;28;20230;-70
2022/07/16 05:58:56;;;;;;;2.83;2.27;;;21.70;99.90;;;;;;4990479;28;20180;-70
2022/07/16 06:01:22;;;;;;;2.70;2.50;;;21.70;99.90;;;;;;4989095;28;20195;-70
2022/07/16 06:03:47;;;;;;;3.83;3.00;;;21.80;99.90;;;;;;4990051;28;20422;-70
2022/07/16 06:06:13;;;;;;;2.67;2.47;;;22.00;99.90;;;;;;4990354;28;20183;-70
2022/07/16 06:08:38;;;;;;;4.73;2.37;;;22.10;99.90;;;;;;4990500;28;20207;-70
2022/07/16 06:11:04;;;;;;;9.40;3.10;;;22.10;99.90;;;;;;4989870;28;20195;-70
2022/07/16 06:13:29;;;;;;;1.97;1.87;;;22.20;99.90;;;;;;4989945;28;20171;-71
2022/07/16 06:15:55;;;;;;;2.70;2.50;;;22.20;99.90;;;;;;4990090;28;20362;-70
2022/07/16 06:18:20;;;;;;;2.87;2.40;;;22.40;99.90;;;;;;4990253;28;20179;-73
2022/07/16 06:20:46;;;;;;;3.13;2.73;;;22.40;99.90;;;;;;4989629;28;20186;-74
2022/07/16 06:23:11;;;;;;;6.03;2.50;;;22.70;99.90;;;;;;4989979;28;20180;-73
2022/07/16 06:25:37;;;;;;;6.03;2.70;;;22.70;99.90;;;;;;4989782;28;20206;-73
2022/07/16 06:28:03;;;;;;;5.33;2.73;;;22.90;99.90;;;;;;4990644;28;20640;-74
2022/07/16 06:30:29;;;;;;;3.20;2.17;;;23.30;99.90;;;;;;4989624;28;20473;-72
2022/07/16 06:32:55;;;;;;;4.17;2.77;;;23.40;99.90;;;;;;4989946;28;20242;-73
2022/07/16 06:35:21;;;;;;;4.87;2.00;;;23.50;99.90;;;;;;4990119;28;20171;-74
2022/07/16 06:37:46;;;;;;;1.97;1.87;;;23.70;99.90;;;;;;4992805;28;20437;-73
2022/07/16 06:40:12;;;;;;;2.23;2.00;;;23.50;99.90;;;;;;4993711;28;20176;-73
2022/07/16 06:42:38;;;;;;;4.70;2.27;;;23.70;99.90;;;;;;4993433;28;20195;-72
2022/07/16 06:45:04;;;;;;;3.63;2.03;;;23.80;99.90;;;;;;4993502;28;20187;-71
2022/07/16 06:47:30;;;;;;;5.43;2.13;;;23.70;99.90;;;;;;4993316;28;20211;-73
2022/07/16 06:49:55;;;;;;;3.37;1.83;;;23.80;99.90;;;;;;4993062;28;20464;-73
2022/07/16 06:52:21;;;;;;;4.53;1.90;;;24.00;99.90;;;;;;4992750;28;20195;-73
2022/07/16 06:54:46;;;;;;;8.13;2.00;;;23.50;99.90;;;;;;4993298;28;20208;-73
2022/07/16 06:57:12;;;;;;;2.23;2.03;;;23.70;99.90;;;;;;4993545;28;20238;-73
2022/07/16 06:59:37;;;;;;;2.90;2.23;;;23.80;99.90;;;;;;4992936;28;20624;-74
2022/07/16 07:02:03;;;;;;;4.30;2.03;;;23.80;99.90;;;;;;4992923;28;20218;-75
2022/07/16 07:04:28;;;;;;;3.00;2.50;;;24.00;99.90;;;;;;4987359;28;20262;-73
2022/07/16 07:06:54;;;;;;;2.97;2.60;;;24.40;99.90;;;;;;4992887;28;20180;-75
2022/07/16 07:09:19;;;;;;;3.30;2.20;;;24.80;99.90;;;;;;4992928;28;20687;-75
2022/07/16 07:11:45;;;;;;;3.47;1.73;;;25.10;99.90;;;;;;4978839;28;20265;-74
2022/07/16 07:14:11;;;;;;;4.20;2.50;;;25.10;99.90;;;;;;4989920;28;20182;-74
2022/07/16 07:16:36;;;;;;;5.27;2.27;;;25.40;99.90;;;;;;4994755;28;20183;-75
2022/07/16 07:19:03;;;;;;;3.07;2.10;;;25.60;99.90;;;;;;4993394;28;20222;-75
2022/07/16 07:21:28;;;;;;;3.30;2.27;;;25.70;99.90;;;;;;4993294;28;20276;-74
2022/07/16 07:23:54;;;;;;;2.00;1.70;;;25.80;99.90;;;;;;4991291;28;20434;-75
2022/07/16 07:26:21;;;;;;;8.10;2.30;;;25.80;99.90;;;;;;4991778;28;20680;-75
2022/07/16 07:28:46;;;;;;;6.17;2.80;;;26.00;99.90;;;;;;4991792;28;20520;-75
2022/07/16 07:31:12;;;;;;;3.03;2.10;;;25.90;99.60;;;;;;4991984;28;20549;-75
2022/07/16 07:33:38;;;;;;;4.13;2.00;;;26.10;99.70;;;;;;4992580;28;20541;-75
2022/07/16 07:36:03;;;;;;;3.77;1.70;;;25.50;99.90;;;;;;4992807;28;20186;-74
2022/07/16 07:38:29;;;;;;;4.13;2.17;;;25.60;99.90;;;;;;4993071;28;20410;-73
2022/07/16 07:40:55;;;;;;;3.80;1.83;;;26.00;99.80;;;;;;4992080;28;20205;-74
2022/07/16 07:43:20;;;;;;;2.13;2.03;;;26.20;99.00;;;;;;4991832;28;20203;-74
2022/07/16 07:45:46;;;;;;;3.00;2.13;;;26.10;98.30;;;;;;4986954;28;20198;-74
2022/07/16 07:48:11;;;;;;;5.57;2.07;;;25.90;97.70;;;;;;4992008;28;20258;-74
2022/07/16 07:50:37;;;;;;;3.97;2.17;;;26.10;99.00;;;;;;4991709;28;20219;-74
2022/07/16 07:53:03;;;;;;;3.60;2.07;;;26.00;98.40;;;;;;4992670;28;20179;-74
2022/07/16 07:55:30;;;;;;;4.57;2.20;;;26.30;97.30;;;;;;4992704;28;20175;-73
2022/07/16 07:57:56;;;;;;;6.00;1.80;;;26.80;96.30;;;;;;4991817;28;20175;-74
2022/07/16 08:00:22;;;;;;;3.83;2.43;;;27.00;96.40;;;;;;4991879;28;20425;-74
2022/07/16 08:02:47;;;;;;;3.83;1.90;;;27.10;95.60;;;;;;4991465;28;20230;-73
2022/07/16 08:05:13;;;;;;;7.43;2.57;;;27.20;94.70;;;;;;4992473;28;20188;-75
2022/07/16 08:07:39;;;;;;;3.17;1.60;;;27.30;95.10;;;;;;4991975;28;20210;-74
2022/07/16 08:10:06;;;;;;;2.83;1.87;;;27.30;94.50;;;;;;4991866;28;20462;-74
2022/07/16 08:12:31;;;;;;;3.53;2.00;;;27.30;93.90;;;;;;4990859;28;20223;-74
2022/07/16 08:14:57;;;;;;;2.80;1.40;;;27.40;94.90;;;;;;4992233;28;20469;-74
2022/07/16 08:17:22;;;;;;;1.23;1.17;;;27.40;91.30;;;;;;4992006;28;20719;-74
2022/07/16 08:19:48;;;;;;;4.40;1.70;;;27.60;92.40;;;;;;4991515;28;20233;-72
2022/07/16 08:22:14;;;;;;;1.40;1.30;;;28.00;91.30;;;;;;4991380;28;20686;-75
2022/07/16 08:27:23;;;;;;;2.50;1.60;;;27.80;91.80;;;;;;4991108;28;20190;-74
2022/07/16 08:29:48;;;;;;;2.40;1.50;;;27.80;91.30;;;;;;4991306;28;20466;-73
2022/07/16 08:32:14;;;;;;;5.00;1.30;;;27.70;90.80;;;;;;4991097;28;20207;-74
2022/07/16 08:34:39;;;;;;;3.07;1.80;;;27.80;90.30;;;;;;4991915;28;20562;-74
2022/07/16 08:37:08;;;;;;;3.63;1.70;;;27.90;90.30;;;;;;4991553;28;20715;-75
2022/07/16 08:39:37;;;;;;;3.23;1.53;;;28.10;90.00;;;;;;4990570;28;20292;-75
2022/07/16 08:42:03;;;;;;;2.83;1.40;;;28.20;89.80;;;;;;4990739;28;20457;-74
2022/07/16 08:44:29;;;;;;;3.50;1.60;;;28.50;88.80;;;;;;4991651;28;20427;-72
2022/07/16 08:46:55;;;;;;;1.73;1.33;;;28.60;88.90;;;;;;4983754;28;20664;-74
2022/07/16 08:49:20;;;;;;;2.70;1.40;;;28.60;85.90;;;;;;4989547;28;20462;-74
2022/07/16 08:51:47;;;;;;;6.47;1.47;;;28.80;85.90;;;;;;4985014;28;20450;-75
2022/07/16 08:54:17;;;;;;;2.67;1.57;;;28.70;86.30;;;;;;4985986;28;20191;-74
2022/07/16 08:56:43;;;;;;;3.43;1.53;;;29.00;87.80;;;;;;4980890;28;20515;-75
2022/07/16 08:59:09;;;;;;;2.03;1.00;;;28.80;85.90;;;;;;4987663;28;20446;-74
2022/07/16 09:01:35;;;;;;;4.63;1.10;;;28.80;83.80;;;;;;4990367;28;20985;-75
2022/07/16 09:04:02;;;;;;;2.80;1.20;;;28.90;82.90;;;;;;4991041;28;20422;-74
2022/07/16 09:06:28;;;;;;;1.47;1.20;;;28.90;83.20;;;;;;4990685;28;20257;-73
2022/07/16 09:08:54;;;;;;;3.20;1.00;;;29.30;80.60;;;;;;4990845;28;20486;-74
2022/07/16 09:11:28;;;;;;;2.30;1.47;;;29.50;78.20;;;;;;4989731;28;20434;-75
2022/07/16 09:13:59;;;;;;;1.17;1.07;;;29.30;79.10;;;;;;4991389;28;20596;-75
2022/07/16 09:16:38;;;;;;;1.43;1.10;;;29.80;81.60;;;;;;4991030;28;20414;-75
2022/07/16 09:19:12;;;;;;;2.70;1.60;;;30.00;79.80;;;;;;4991034;28;20437;-75
2022/07/16 09:22:07;;;;;;;1.47;1.37;;;29.50;79.50;;;;;;4989980;28;20449;-75
2022/07/16 09:24:40;;;;;;;1.93;1.50;;;29.20;81.20;;;;;;4990583;28;20497;-75
2022/07/16 09:27:13;;;;;;;2.90;1.00;;;29.10;79.30;;;;;;4990767;28;20429;-75
2022/07/16 09:29:46;;;;;;;1.03;0.90;;;30.10;79.60;;;;;;4990896;28;20461;-75
2022/07/16 09:32:24;;;;;;;1.60;1.23;;;30.50;79.10;;;;;;4989466;28;20799;-74
2022/07/16 09:35:10;;;;;;;3.13;1.20;;;30.50;76.40;;;;;;4986379;28;20419;-74
2022/07/16 09:37:53;;;;;;;1.37;1.27;;;30.80;76.30;;;;;;4988702;28;20423;-75
2022/07/16 09:40:42;;;;;;;2.50;1.07;;;30.60;76.60;;;;;;4989705;28;20441;-75
2022/07/16 09:43:14;;;;;;;4.40;1.30;;;30.50;75.90;;;;;;4990483;28;20480;-73
2022/07/16 09:45:44;;;;;;;5.80;1.40;;;30.90;74.60;;;;;;4991032;28;20414;-74
2022/07/16 09:48:28;;;;;;;1.60;1.50;;;31.50;73.60;;;;;;4989478;28;20418;-77
2022/07/16 09:50:56;;;;;;;1.83;1.00;;;31.20;73.90;;;;;;4990015;28;20458;-75
2022/07/16 09:53:25;;;;;;;5.33;1.23;;;31.30;73.20;;;;;;4990607;28;20429;-75
2022/07/16 09:55:59;;;;;;;1.40;1.30;;;31.10;70.90;;;;;;4990750;28;20411;-75
2022/07/16 09:58:25;;;;;;;2.90;1.40;;;31.20;73.80;;;;;;4979410;28;20423;-74
2022/07/16 10:00:51;;;;;;;7.27;2.17;;;31.90;71.80;;;;;;4970286;28;20995;-75
2022/07/16 10:03:18;;;;;;;2.90;1.60;;;32.00;70.80;;;;;;4988958;28;20238;-75
2022/07/16 10:05:43;;;;;;;1.30;1.10;;;31.80;69.20;;;;;;4990675;28;20421;-76
2022/07/16 10:08:09;;;;;;;2.67;1.27;;;31.60;67.70;;;;;;4990106;28;20415;-75
2022/07/16 10:10:34;;;;;;;4.90;1.20;;;31.80;67.20;;;;;;4989427;28;20215;-72
2022/07/16 10:13:00;;;;;;;3.10;1.23;;;32.00;66.30;;;;;;4994351;28;20171;-72
2022/07/16 10:15:26;;;;;;;2.90;1.20;;;31.30;68.40;;;;;;4994177;28;20542;-72
2022/07/16 10:17:52;;;;;;;6.47;1.10;;;31.40;68.60;;;;;;4993606;28;20671;-74
2022/07/16 10:20:20;;;;;;;1.70;1.10;;;31.40;68.90;;;;;;4993517;28;20496;-75
2022/07/16 10:22:47;;;;;;;3.13;1.60;;;31.30;68.70;;;;;;4991932;28;20906;-74
2022/07/16 10:25:16;;;;;;;2.60;1.10;;;30.60;69.60;;;;;;4993148;28;20505;-74
2022/07/16 10:27:42;;;;;;;1.70;1.17;;;30.70;68.70;;;;;;4993851;28;20426;-74
2022/07/16 10:30:18;;;;;;;1.57;1.00;;;31.00;69.00;;;;;;4993688;28;21035;-72
2022/07/16 10:32:59;;;;;;;1.17;0.93;;;31.30;68.90;;;;;;4992949;28;20206;-74
2022/07/16 10:35:29;;;;;;;2.53;1.13;;;31.60;67.40;;;;;;4994084;28;20406;-75
2022/07/16 10:38:05;;;;;;;1.37;1.00;;;31.90;67.60;;;;;;4993256;28;20461;-75
2022/07/16 10:40:31;;;;;;;2.60;1.30;;;32.20;66.60;;;;;;4993167;28;20501;-74
2022/07/16 10:43:20;;;;;;;2.63;0.90;;;31.90;69.00;;;;;;4993165;28;20533;-73
2022/07/16 10:45:56;;;;;;;2.57;1.00;;;32.50;67.70;;;;;;4991073;28;20175;-77
2022/07/16 10:48:49;;;;;;;4.10;0.93;;;32.40;63.50;;;;;;4973367;28;20415;-76
2022/07/16 10:51:22;;;;;;;1.47;1.10;;;32.50;64.20;;;;;;4972872;28;20531;-74
2022/07/16 10:53:57;;;;;;;2.40;1.00;;;32.60;64.10;;;;;;4989103;28;20446;-73
2022/07/16 10:56:45;;;;;;;2.03;1.40;;;32.70;64.20;;;;;;4993322;28;20434;-74
2022/07/16 10:59:15;;;;;;;2.13;1.00;;;32.50;64.40;;;;;;4992587;28;20489;-73
2022/07/16 11:01:43;;;;;;;1.80;0.90;;;32.60;64.60;;;;;;4992952;28;20484;-74
2022/07/16 11:04:09;;;;;;;4.10;1.13;;;32.30;62.20;;;;;;4993214;28;20423;-72
2022/07/16 11:06:37;;;;;;;2.30;1.03;;;31.60;65.20;;;;;;4993398;28;20430;-74
2022/07/16 11:09:06;;;;;;;4.00;1.50;;;31.50;64.60;;;;;;4992567;28;20541;-75
2022/07/16 11:11:39;;;;;;;1.83;1.20;;;31.50;64.70;;;;;;4993065;28;20430;-75
2022/07/16 11:14:06;;;;;;;2.17;1.23;;;31.50;63.80;;;;;;4991870;28;20537;-74
2022/07/16 11:16:32;;;;;;;2.63;1.20;;;31.30;63.40;;;;;;4993517;28;20437;-74
2022/07/16 11:19:02;;;;;;;1.90;0.97;;;30.80;63.70;;;;;;4993178;28;20407;-75
2022/07/16 11:21:28;;;;;;;1.00;0.90;;;31.00;66.10;;;;;;4991647;28;20203;-72
2022/07/16 11:23:58;;;;;;;3.30;1.00;;;30.70;63.20;;;;;;4993097;28;20417;-74
2022/07/16 11:26:24;;;;;;;1.77;1.00;;;30.80;62.20;;;;;;4992838;28;20438;-73
2022/07/16 11:28:54;;;;;;;1.10;1.00;;;30.70;62.00;;;;;;4992845;28;20879;-74
2022/07/16 11:31:28;;;;;;;0.93;0.83;;;30.50;63.10;;;;;;4991911;28;20608;-76
2022/07/16 11:33:57;;;;;;;2.90;1.33;;;30.30;62.10;;;;;;4977537;28;20799;-74
2022/07/16 11:36:27;;;;;;;0.83;0.83;;;30.40;62.70;;;;;;4976625;28;20423;-76
2022/07/16 11:38:57;;;;;;;2.47;1.10;;;30.60;64.70;;;;;;4970181;28;20592;-74
2022/07/16 11:41:23;;;;;;;1.00;0.90;;;30.40;64.80;;;;;;4924974;28;20549;-73
2022/07/16 11:43:49;;;;;;;1.33;0.90;;;30.40;64.30;;;;;;4927714;28;20732;-73
2022/07/16 11:46:26;;;;;;;1.20;0.90;;;30.60;63.10;;;;;;4948180;28;20281;-73
2022/07/16 11:48:53;;;;;;;1.00;0.90;;;30.60;62.30;;;;;;4948376;28;20202;-73
2022/07/16 11:51:19;;;;;;;1.27;1.10;;;30.50;62.40;;;;;;4947860;28;20438;-73
2022/07/16 11:53:52;;;;;;;5.03;1.00;;;30.20;64.00;;;;;;4948010;28;20410;-73
2022/07/16 11:56:31;;;;;;;1.97;0.90;;;30.10;64.40;;;;;;4947969;28;20552;-73
2022/07/16 11:58:57;;;;;;;3.50;1.57;;;30.10;66.50;;;;;;4948387;28;20520;-73
2022/07/16 12:01:24;;;;;;;2.10;1.00;;;29.80;65.00;;;;;;4946875;28;20742;-74
2022/07/16 12:03:56;;;;;;;0.80;0.80;;;29.80;67.00;;;;;;4946174;28;20179;-73
2022/07/16 12:06:22;;;;;;;2.30;1.20;;;29.50;66.20;;;;;;4950773;28;20554;-73
2022/07/16 12:08:56;;;;;;;2.40;0.90;;;29.50;65.50;;;;;;4947352;28;20449;-72
2022/07/16 12:11:32;;;;;;;3.13;1.00;;;29.60;66.50;;;;;;4945701;28;20433;-72
2022/07/16 12:13:58;;;;;;;1.43;1.30;;;29.40;66.10;;;;;;4945872;28;20413;-73
2022/07/16 12:16:25;;;;;;;3.00;1.30;;;29.20;67.10;;;;;;4948231;28;20410;-73
2022/07/16 12:19:12;;;;;;;6.10;1.10;;;29.00;68.20;;;;;;4947863;28;20437;-73
2022/07/16 12:21:39;;;;;;;1.10;1.00;;;29.00;69.70;;;;;;4948018;28;20437;-74
2022/07/16 12:24:06;;;;;;;2.50;1.00;;;29.00;66.00;;;;;;4947929;28;20413;-73
2022/07/16 12:26:38;;;;;;;3.57;1.40;;;29.00;68.20;;;;;;4945544;28;20873;-73
2022/07/16 12:29:06;;;;;;;3.07;1.10;;;28.80;67.70;;;;;;4938708;28;20477;-73
2022/07/16 12:31:34;;;;;;;0.80;0.80;;;28.60;68.00;;;;;;4924144;28;20458;-73
2022/07/16 12:34:02;;;;;;;1.50;1.20;;;28.50;67.40;;;;;;4928259;28;20423;-73
2022/07/16 12:36:34;;;;;;;4.93;1.27;;;28.50;67.20;;;;;;4928353;28;20414;-73
2022/07/16 12:39:02;;;;;;;2.03;0.70;;;28.30;67.90;;;;;;4926541;28;20993;-73
2022/07/16 12:41:34;;;;;;;1.60;0.90;;;28.30;69.10;;;;;;4928752;28;20520;-74
2022/07/16 12:44:02;;;;;;;1.63;1.13;;;28.40;69.80;;;;;;4926308;28;20414;-73
2022/07/16 12:46:33;;;;;;;7.20;0.97;;;28.30;69.50;;;;;;4927120;28;20452;-73
2022/07/16 12:49:02;;;;;;;1.13;0.80;;;28.40;68.30;;;;;;4928237;28;20454;-73
2022/07/16 12:51:30;;;;;;;1.00;0.90;;;28.30;70.20;;;;;;4925858;28;20442;-72
2022/07/16 12:53:58;;;;;;;4.80;0.90;;;28.20;70.70;;;;;;4928479;28;20415;-73
2022/07/16 12:59:10;;;;;;;1.20;1.07;;;28.40;70.20;;;;;;4925300;28;20522;-73
2022/07/16 13:01:36;;;;;;;1.83;1.13;;;28.40;70.50;;;;;;4927443;28;20430;-72
2022/07/16 13:04:03;;;;;;;1.73;1.20;;;28.30;70.00;;;;;;4926757;28;20495;-74
2022/07/16 13:06:30;;;;;;;1.77;1.00;;;28.20;68.50;;;;;;4925265;28;20541;-73
2022/07/16 13:08:56;;;;;;;3.93;0.93;;;28.20;70.60;;;;;;4925858;28;20593;-73
2022/07/16 13:11:22;;;;;;;1.23;0.80;;;28.10;68.50;;;;;;4924655;28;20542;-73
2022/07/16 13:13:49;;;;;;;5.70;0.93;;;28.20;70.10;;;;;;4927507;28;20447;-72
2022/07/16 13:16:17;;;;;;;1.00;0.83;;;28.20;69.30;;;;;;4957343;28;20469;-73
2022/07/16 13:18:43;;;;;;;4.00;0.90;;;28.30;70.60;;;;;;4991070;28;20427;-73
2022/07/16 13:21:09;;;;;;;1.23;0.90;;;28.30;68.10;;;;;;4990430;28;20481;-72
2022/07/16 13:23:35;;;;;;;1.40;1.00;;;28.10;68.10;;;;;;4991381;28;20410;-74
2022/07/16 13:26:02;;;;;;;3.83;1.07;;;27.80;67.40;;;;;;4990076;28;20184;-74
2022/07/16 13:28:28;;;;;;;1.00;0.70;;;27.90;70.40;;;;;;4990623;28;20423;-73
2022/07/16 13:30:53;;;;;;;1.43;0.70;;;27.60;67.60;;;;;;4989947;28;20464;-73
2022/07/16 13:33:19;;;;;;;5.80;1.40;;;27.50;67.00;;;;;;4991336;28;20175;-74
2022/07/16 13:35:45;;;;;;;1.87;1.20;;;27.40;68.70;;;;;;4990098;28;20211;-73
2022/07/16 13:38:10;;;;;;;1.60;1.00;;;27.40;69.30;;;;;;4990868;28;20258;-73
2022/07/16 13:40:39;;;;;;;2.63;0.80;;;27.40;68.00;;;;;;4990023;28;20214;-73
2022/07/16 13:43:05;;;;;;;1.57;1.30;;;27.30;69.30;;;;;;4991197;28;20186;-74
2022/07/16 13:45:30;;;;;;;1.10;1.00;;;27.40;70.00;;;;;;4991506;28;20524;-74
2022/07/16 13:47:56;;;;;;;2.03;1.33;;;27.30;69.90;;;;;;4994802;28;20217;-74
2022/07/16 13:50:22;;;;;;;2.00;1.07;;;27.50;70.60;;;;;;4994695;28;20207;-74
2022/07/16 13:52:47;;;;;;;2.67;1.93;;;27.60;70.80;;;;;;4993884;28;20285;-73
2022/07/16 13:55:13;;;;;;;1.43;1.30;;;27.70;71.10;;;;;;4994049;28;20207;-74
2022/07/16 14:00:26;;;;;;;1.67;1.20;;;27.40;70.80;;;;;;4993839;28;20278;-72
2022/07/16 14:02:52;;;;;;;1.03;1.00;;;27.10;69.70;;;;;;4993782;28;20477;-75
2022/07/16 14:05:18;;;;;;;1.43;1.33;;;26.80;70.50;;;;;;4994640;28;20780;-74
2022/07/16 14:07:43;;;;;;;1.40;1.30;;;26.70;71.50;;;;;;4994757;28;20414;-75
2022/07/16 14:10:11;;;;;;;1.70;1.60;;;26.80;72.20;;;;;;4993953;28;20210;-73
2022/07/16 14:12:36;;;;;;;2.70;1.40;;;26.90;72.10;;;;;;4992600;28;20694;-74
2022/07/16 14:15:02;;;;;;;2.90;1.23;;;26.80;72.70;;;;;;4994140;28;20426;-74
2022/07/16 14:17:28;;;;;;;3.97;1.90;;;27.00;73.00;;;;;;4994489;28;20179;-72
2022/07/16 14:19:53;;;;;;;2.60;1.40;;;27.00;72.10;;;;;;4993922;28;20554;-74
2022/07/16 14:22:19;;;;;;;3.33;2.27;;;26.90;72.60;;;;;;4992730;28;20582;-74
2022/07/16 14:24:44;;;;;;;1.37;1.13;;;26.80;73.00;;;;;;4994071;28;20179;-74
2022/07/16 14:27:10;;;;;;;1.73;1.57;;;26.80;73.80;;;;;;4994212;28;20180;-74
2022/07/16 14:29:35;;;;;;;1.80;1.50;;;26.80;73.70;;;;;;4993968;28;20207;-74